Woodbury, North Dakota
Current Conditions -  °F | °C
As of 2:56 AM on Sunday 23 Nov 2014 (Local Time) from KJMS Reporting Station
Overcast Overcast  
Wind Chill: 31°   Ceiling: 9500
Heat Index: 38°   Visibility: 10mi
Dew Point: 34°   Wind: 9mph
Humidity: 86%   Direction: 270°W
Pressure: 29.36"   Gusts: NA
Location:  46.8494°N, 98.7424°W
Report Text: KJMS 230856Z AUTO 27008KT 10SM FEW080 OVC095 03/01 A2936 RMK AO2 SLP952 T00330011 51015
Loading
Personal Weather Stations






























Interactive Weather Map New forecast layout! Learn more

10-Day Weather Forecast

Advertisements
Track Severe Weather on mobile